Currie, MN (56123)

11:02 AM CST on February 09, 2016 (GMT -0600)
300th st | | Change Station
CLOSE
Current Station
Personal Weather Station
Location: Westbrook, MN
Elevation: 1457 ft
Nearby Weather Stations

Elev 1457 ft 44.05 °N, 95.44 °W | Updated 8 minutes ago

Clear
Clear
10.2 °F
Feels Like -9 °F
N
20.6
Wind Variable Wind from North

Today
High -- | Low -- °F
--% Chance of Precip.
Yesterday
High -- | Low -- °F
Precip. -- in
Pressure 30.21 in
Visibility 10.0 miles
Clouds Clear
Windchill -9 °F
Dew Point 9 °F
Humidity 93%
Rainfall 0.00 in
Snow Depth Not available.
7:29 AM 5:42 PM
New Moon, 2% visible
METAR KTKC 091653Z AUTO 34020G26KT 10SM CLR M11/M15 A3021 RMK AO2 T11061146
Pressure 30.21 in
Visibility 10.0 miles
Clouds Clear
Windchill -9 °F
Dew Point 9 °F
Humidity 93%
Rainfall 0.00 in
Snow Depth Not available.
7:29 AM 5:42 PM
New Moon, 2% visible
METAR KTKC 091653Z AUTO 34020G26KT 10SM CLR M11/M15 A3021 RMK AO2 T11061146

10-Day Weather Forecast

Almanac

Astronomy

Feb. 09, 2016 Rise Set
Actual Time
Civil Twilight
Nautical Twilight
Astronomical Twilight
Moon
Length of Visible Light
Length of Day
Tomorrow will be .
, % of the Moon is Illuminated

Today's Extremes

State Highs State Lows

Community

WunderPhotos

Upload Photos

1,891,631 photos uploaded!

WunderBlog® & News

Nearby

Air Quality

  Air Quality AQ Index Pollutant
Not available.

Snow Depth

Station Depth Elevation

Earthquake Activity

City Distance Mag. Time & Date
Minimum magnitude displayed is 2.5.

Coastal Water Temperatures

Place Temperature

Stations

Nearby Weather Stations

Station Location Temp. Windchill Dew Point Humidity Wind Precip. Elev Updated Type
                   

Watches & Warnings

There are currently no watches in effect.